createdAt,value
2022-09-06T00:00:18.287Z,21.40
2022-09-06T00:02:46.039Z,21.40
2022-09-06T00:05:14.338Z,21.40
2022-09-06T00:07:41.959Z,21.40
2022-09-06T00:10:10.501Z,21.40
2022-09-06T00:12:38.448Z,21.30
2022-09-06T00:15:06.661Z,21.30
2022-09-06T00:17:34.457Z,21.30
2022-09-06T00:20:02.424Z,21.30
2022-09-06T00:22:29.614Z,21.30
2022-09-06T00:24:57.195Z,21.30
2022-09-06T00:27:24.464Z,21.30
2022-09-06T00:29:51.565Z,21.40
2022-09-06T00:32:18.695Z,21.40
2022-09-06T00:34:46.244Z,21.40
2022-09-06T00:37:13.460Z,21.40
2022-09-06T00:39:40.707Z,21.40
2022-09-06T00:42:12.227Z,21.30
2022-09-06T00:44:40.441Z,21.30
2022-09-06T00:47:08.894Z,21.30
2022-09-06T00:49:44.252Z,21.30
2022-09-06T00:52:17.186Z,21.30
2022-09-06T00:54:44.560Z,21.30
2022-09-06T00:57:12.863Z,21.20
2022-09-06T00:59:41.712Z,21.20
2022-09-06T01:02:09.780Z,21.20
2022-09-06T01:04:39.861Z,21.10
2022-09-06T01:07:14.405Z,21.10
2022-09-06T01:10:01.750Z,21.10
2022-09-06T01:12:38.000Z,21.00
2022-09-06T01:15:38.505Z,21.00
2022-09-06T01:18:14.262Z,21.10
2022-09-06T01:20:44.490Z,21.00
2022-09-06T01:23:29.881Z,21.10
2022-09-06T01:26:30.408Z,21.00
2022-09-06T01:28:58.363Z,21.00
2022-09-06T01:31:41.629Z,21.00
2022-09-06T01:34:08.714Z,21.00
2022-09-06T01:36:49.675Z,21.00
2022-09-06T01:39:33.493Z,21.00
2022-09-06T01:42:06.467Z,21.10
2022-09-06T01:44:35.334Z,21.00
2022-09-06T01:47:22.288Z,21.00
2022-09-06T01:50:28.512Z,21.00
2022-09-06T01:53:01.903Z,21.00
2022-09-06T01:55:50.043Z,21.10
2022-09-06T01:58:26.585Z,21.10
2022-09-06T02:01:08.610Z,21.10
2022-09-06T02:04:14.861Z,21.10
2022-09-06T02:06:47.234Z,21.10
2022-09-06T02:09:23.617Z,21.10
2022-09-06T02:11:58.654Z,21.20
2022-09-06T02:14:35.393Z,21.20
2022-09-06T02:17:05.775Z,21.10
2022-09-06T02:19:47.733Z,21.20
2022-09-06T02:22:19.789Z,21.20
2022-09-06T02:24:50.760Z,21.20
2022-09-06T02:27:18.215Z,21.30
2022-09-06T02:29:45.386Z,21.30
2022-09-06T02:32:23.156Z,21.30
2022-09-06T02:34:55.604Z,21.30
2022-09-06T02:37:26.642Z,21.30
2022-09-06T02:39:56.094Z,21.30
2022-09-06T02:42:24.937Z,21.30
2022-09-06T02:44:52.052Z,21.30
2022-09-06T02:47:19.164Z,21.20
2022-09-06T02:49:46.414Z,21.20
2022-09-06T02:52:13.623Z,21.10
2022-09-06T02:54:40.717Z,21.00
2022-09-06T02:57:07.941Z,21.00
2022-09-06T02:59:35.134Z,21.00
2022-09-06T03:02:02.570Z,20.90
2022-09-06T03:04:30.043Z,20.90
2022-09-06T03:06:57.280Z,20.80
2022-09-06T03:09:25.175Z,20.80
2022-09-06T03:11:52.445Z,20.70
2022-09-06T03:14:20.035Z,20.80
2022-09-06T03:16:47.271Z,20.80
2022-09-06T03:19:14.629Z,20.80
2022-09-06T03:21:41.832Z,20.80
2022-09-06T03:24:08.924Z,20.80
2022-09-06T03:26:36.125Z,20.80
2022-09-06T03:29:03.229Z,20.80
2022-09-06T03:31:30.325Z,20.70
2022-09-06T03:33:57.604Z,20.80
2022-09-06T03:36:24.754Z,20.80
2022-09-06T03:38:53.995Z,20.80
2022-09-06T03:41:21.303Z,20.80
2022-09-06T03:43:48.623Z,20.80
2022-09-06T03:46:15.928Z,20.70
2022-09-06T03:48:43.418Z,20.80
2022-09-06T03:51:10.571Z,20.80
2022-09-06T03:53:37.664Z,20.80
2022-09-06T03:56:05.146Z,20.70
2022-09-06T03:58:33.015Z,20.70
2022-09-06T04:01:09.002Z,20.70
2022-09-06T04:03:37.089Z,20.70
2022-09-06T04:06:05.410Z,20.70
2022-09-06T04:08:33.668Z,20.60
2022-09-06T04:11:00.944Z,20.70
2022-09-06T04:13:29.596Z,20.70
2022-09-06T04:15:57.580Z,20.70
2022-09-06T04:18:25.217Z,20.70
2022-09-06T04:20:54.475Z,20.80
2022-09-06T04:23:22.887Z,20.80
2022-09-06T04:25:52.374Z,20.80
2022-09-06T04:28:20.945Z,20.80
2022-09-06T04:31:03.294Z,20.80
2022-09-06T04:33:33.735Z,20.80
2022-09-06T04:36:02.576Z,20.80
2022-09-06T04:38:34.419Z,20.70
2022-09-06T04:41:01.696Z,20.60
2022-09-06T04:43:28.861Z,20.60
2022-09-06T04:45:56.098Z,20.60
2022-09-06T04:48:23.430Z,20.60
2022-09-06T04:50:50.570Z,20.60
2022-09-06T04:53:17.755Z,20.50
2022-09-06T04:55:45.140Z,20.50
2022-09-06T04:58:12.372Z,20.50
2022-09-06T05:00:41.606Z,20.50
2022-09-06T05:03:09.918Z,20.40
2022-09-06T05:05:37.224Z,20.50
2022-09-06T05:08:04.992Z,20.40
2022-09-06T05:10:32.144Z,20.40
2022-09-06T05:12:59.343Z,20.40
2022-09-06T05:15:26.498Z,20.40
2022-09-06T05:17:53.693Z,20.40
2022-09-06T05:20:20.794Z,20.40
2022-09-06T05:22:56.717Z,20.30
2022-09-06T05:25:24.100Z,20.40
2022-09-06T05:27:51.168Z,20.40
2022-09-06T05:30:18.440Z,20.30
2022-09-06T05:32:45.860Z,20.30
2022-09-06T05:35:13.472Z,20.30
2022-09-06T05:37:40.679Z,20.20
2022-09-06T05:40:08.618Z,20.20
2022-09-06T05:42:35.927Z,20.20
2022-09-06T05:45:03.154Z,20.20
2022-09-06T05:47:34.419Z,20.10
2022-09-06T05:50:02.679Z,20.10
2022-09-06T05:52:30.433Z,20.10
2022-09-06T05:54:57.643Z,20.10
2022-09-06T05:57:24.782Z,20.10
2022-09-06T05:59:53.526Z,20.10
2022-09-06T06:02:24.253Z,20.10
2022-09-06T06:04:54.687Z,20.10
2022-09-06T06:07:22.097Z,20.20
2022-09-06T06:09:49.301Z,20.30
2022-09-06T06:12:16.500Z,20.40
2022-09-06T06:14:43.763Z,20.40
2022-09-06T06:17:11.003Z,20.50
2022-09-06T06:19:38.160Z,20.50
2022-09-06T06:22:05.510Z,20.60
2022-09-06T06:24:32.997Z,20.60
2022-09-06T06:27:00.084Z,20.60
2022-09-06T06:29:27.328Z,20.70
2022-09-06T06:31:54.505Z,20.70
2022-09-06T06:34:21.995Z,20.70
2022-09-06T06:36:49.292Z,20.80
2022-09-06T06:39:16.687Z,20.80
2022-09-06T06:41:43.903Z,20.80
2022-09-06T06:44:30.071Z,20.90
2022-09-06T06:46:58.816Z,20.90
2022-09-06T06:49:25.923Z,21.00
2022-09-06T06:51:53.482Z,21.60
2022-09-06T06:54:20.608Z,22.00
2022-09-06T06:56:47.765Z,22.20
2022-09-06T06:59:15.137Z,22.30
2022-09-06T07:01:42.398Z,22.40
2022-09-06T07:04:11.899Z,22.40
2022-09-06T07:12:31.271Z,22.00
2022-09-06T07:14:58.359Z,21.90
2022-09-06T07:17:25.606Z,21.90
2022-09-06T07:22:40.632Z,22.00
2022-09-06T07:25:09.830Z,22.00
2022-09-06T07:27:52.365Z,22.00
2022-09-06T07:30:20.272Z,22.10
2022-09-06T07:32:48.213Z,22.10
2022-09-06T07:35:15.544Z,22.10
2022-09-06T07:37:42.980Z,22.10
2022-09-06T07:40:10.748Z,22.10
2022-09-06T07:42:38.096Z,22.20
2022-09-06T07:45:06.306Z,22.30
2022-09-06T07:53:13.083Z,22.40
2022-09-06T07:55:43.253Z,22.40
2022-09-06T07:58:11.069Z,22.50
2022-09-06T08:00:41.108Z,22.50
2022-09-06T08:03:08.728Z,22.60
2022-09-06T08:11:10.913Z,22.70
2022-09-06T08:13:38.811Z,22.80
2022-09-06T08:16:08.530Z,22.90
2022-09-06T08:18:36.840Z,23.10
2022-09-06T08:21:15.338Z,23.20
2022-09-06T08:23:47.377Z,23.20
2022-09-06T08:26:16.111Z,23.30
2022-09-06T08:28:43.877Z,23.20
2022-09-06T08:31:16.012Z,23.30
2022-09-06T08:33:44.249Z,23.40
2022-09-06T08:36:12.037Z,23.30
2022-09-06T08:38:39.506Z,23.40
2022-09-06T08:41:21.100Z,23.50
2022-09-06T08:46:56.081Z,23.60
2022-09-06T08:49:27.031Z,23.60
2022-09-06T08:52:07.112Z,23.50
2022-09-06T08:54:47.561Z,23.50
2022-09-06T08:57:29.479Z,23.60
2022-09-06T09:00:02.036Z,23.80
2022-09-06T09:02:51.812Z,23.90
2022-09-06T09:05:23.699Z,24.00
2022-09-06T09:07:55.624Z,24.10
2022-09-06T09:10:32.599Z,24.20
2022-09-06T09:13:02.871Z,24.40
2022-09-06T09:15:40.383Z,24.40
2022-09-06T09:18:08.023Z,24.50
2022-09-06T09:20:37.127Z,24.60
2022-09-06T09:23:04.482Z,24.60
2022-09-06T09:25:33.820Z,24.60
2022-09-06T09:28:01.390Z,24.70
2022-09-06T09:30:52.075Z,24.70
2022-09-06T09:33:24.959Z,24.70
2022-09-06T09:35:52.547Z,24.80
2022-09-06T09:38:32.875Z,25.00
2022-09-06T09:41:05.693Z,25.20
2022-09-06T09:43:41.262Z,25.30
2022-09-06T09:46:24.898Z,25.50
2022-09-06T09:49:09.062Z,25.60
2022-09-06T09:51:45.014Z,25.70
2022-09-06T09:54:14.832Z,25.80
2022-09-06T09:56:48.386Z,25.90
2022-09-06T09:59:27.828Z,26.00
2022-09-06T10:02:00.014Z,26.20
2022-09-06T10:04:51.626Z,26.20
2022-09-06T10:07:20.341Z,26.20
2022-09-06T10:09:59.200Z,26.30
2022-09-06T10:12:38.948Z,26.40
2022-09-06T10:15:08.366Z,26.50
2022-09-06T10:17:47.433Z,26.50
2022-09-06T10:20:14.816Z,26.60
2022-09-06T10:22:59.547Z,26.80
2022-09-06T10:25:47.718Z,26.70
2022-09-06T10:28:34.169Z,26.70
2022-09-06T10:31:34.317Z,26.90
2022-09-06T10:34:16.888Z,26.90
2022-09-06T10:36:52.790Z,27.00
2022-09-06T10:39:30.047Z,27.10
2022-09-06T10:42:19.883Z,27.10
2022-09-06T10:45:11.776Z,27.00
2022-09-06T10:47:57.419Z,27.10
2022-09-06T10:50:56.394Z,27.20
2022-09-06T10:53:39.651Z,27.20
2022-09-06T10:56:32.600Z,27.20
2022-09-06T11:02:12.267Z,27.30
2022-09-06T11:07:31.160Z,27.50
2022-09-06T11:10:03.791Z,27.60
2022-09-06T11:12:37.379Z,27.70
2022-09-06T11:15:08.178Z,27.90
2022-09-06T11:17:41.332Z,28.10
2022-09-06T11:20:22.611Z,28.20
2022-09-06T11:23:05.952Z,28.20
2022-09-06T11:26:04.039Z,28.10
2022-09-06T11:28:43.140Z,28.00
2022-09-06T11:34:06.163Z,28.40
2022-09-06T11:36:51.788Z,28.40
2022-09-06T11:42:41.779Z,28.30
2022-09-06T11:45:12.041Z,28.20
2022-09-06T11:47:43.336Z,28.20
2022-09-06T11:50:26.211Z,28.20
2022-09-06T11:53:00.894Z,28.10
2022-09-06T11:55:45.320Z,28.10
2022-09-06T11:58:18.196Z,28.20
2022-09-06T12:00:46.745Z,28.30
2022-09-06T12:06:31.895Z,28.40
2022-09-06T12:09:00.065Z,28.50
2022-09-06T12:11:42.330Z,28.70
2022-09-06T12:14:28.215Z,28.70
2022-09-06T12:17:00.940Z,28.60
2022-09-06T12:19:52.364Z,28.50
2022-09-06T12:22:32.771Z,28.40
2022-09-06T12:25:03.956Z,28.10
2022-09-06T12:27:40.001Z,27.90
2022-09-06T12:30:11.489Z,27.70
2022-09-06T12:32:46.971Z,27.60
2022-09-06T12:38:18.449Z,27.30
2022-09-06T12:40:48.720Z,27.30
2022-09-06T12:43:17.336Z,27.30
2022-09-06T12:45:51.060Z,27.30
2022-09-06T12:48:28.565Z,27.20
2022-09-06T12:51:05.910Z,27.30
2022-09-06T12:53:34.473Z,27.40
2022-09-06T12:56:09.953Z,27.40
2022-09-06T12:58:38.724Z,27.40
2022-09-06T13:01:33.634Z,27.40
2022-09-06T13:04:20.176Z,27.50
2022-09-06T13:06:48.227Z,27.50
2022-09-06T13:09:20.396Z,27.60
2022-09-06T13:11:51.473Z,27.80
2022-09-06T13:14:24.449Z,27.90
2022-09-06T13:16:53.983Z,27.90
2022-09-06T13:19:37.681Z,28.00
2022-09-06T13:22:13.696Z,28.20
2022-09-06T13:24:47.668Z,28.30
2022-09-06T13:27:25.266Z,28.30
2022-09-06T13:29:56.786Z,28.30
2022-09-06T13:32:24.384Z,28.50
2022-09-06T13:35:01.244Z,28.60
2022-09-06T13:37:33.784Z,28.60
2022-09-06T13:40:05.785Z,28.60
2022-09-06T13:42:37.960Z,28.50
2022-09-06T13:45:26.920Z,28.50
2022-09-06T13:48:03.386Z,28.40
2022-09-06T13:50:41.749Z,28.20
2022-09-06T13:53:08.796Z,28.10
2022-09-06T13:55:35.925Z,28.00
2022-09-06T13:58:03.890Z,27.90
2022-09-06T14:00:31.288Z,27.90
2022-09-06T14:02:59.029Z,27.90
2022-09-06T14:05:26.400Z,27.90
2022-09-06T14:07:54.278Z,27.90
2022-09-06T14:10:23.871Z,28.00
2022-09-06T14:12:53.141Z,27.90
2022-09-06T14:15:20.229Z,28.00
2022-09-06T14:17:47.411Z,28.00
2022-09-06T14:20:14.584Z,28.10
2022-09-06T14:22:41.728Z,28.20
2022-09-06T14:25:09.460Z,28.40
2022-09-06T14:27:36.666Z,28.40
2022-09-06T14:30:04.886Z,28.40
2022-09-06T14:32:32.101Z,28.40
2022-09-06T14:35:00.320Z,28.50
2022-09-06T14:37:27.548Z,28.40
2022-09-06T14:39:54.746Z,28.30
2022-09-06T14:42:24.619Z,28.20
2022-09-06T14:44:52.067Z,28.20
2022-09-06T14:47:19.245Z,28.10
2022-09-06T14:49:46.335Z,27.90
2022-09-06T14:52:13.588Z,27.80
2022-09-06T14:54:40.959Z,27.70
2022-09-06T14:57:08.223Z,27.60
2022-09-06T14:59:35.483Z,27.60
2022-09-06T15:02:02.598Z,27.60
2022-09-06T15:04:29.960Z,27.70
2022-09-06T15:06:57.169Z,27.70
2022-09-06T15:09:24.375Z,27.60
2022-09-06T15:11:52.546Z,27.60
2022-09-06T15:14:25.219Z,27.40
2022-09-06T15:16:56.500Z,27.30
2022-09-06T15:19:28.470Z,27.20
2022-09-06T15:21:57.237Z,27.10
2022-09-06T15:24:24.731Z,26.90
2022-09-06T15:26:52.868Z,26.80
2022-09-06T15:29:20.586Z,26.80
2022-09-06T15:31:50.569Z,26.70
2022-09-06T15:34:19.451Z,26.70
2022-09-06T15:36:47.615Z,26.60
2022-09-06T15:39:15.365Z,26.60
2022-09-06T15:41:42.825Z,26.50
2022-09-06T15:44:15.142Z,26.50
2022-09-06T15:46:51.653Z,26.50
2022-09-06T15:49:31.732Z,26.50
2022-09-06T15:52:01.590Z,26.50
2022-09-06T15:54:47.942Z,26.50
2022-09-06T15:57:16.840Z,26.50
2022-09-06T15:59:44.542Z,26.50
2022-09-06T16:02:12.072Z,26.50
2022-09-06T16:04:39.528Z,26.50
2022-09-06T16:07:07.266Z,26.50
2022-09-06T16:09:34.657Z,26.50
2022-09-06T16:12:01.858Z,26.60
2022-09-06T16:14:29.304Z,26.50
2022-09-06T16:16:57.471Z,26.50
2022-09-06T16:19:28.084Z,26.50
2022-09-06T16:21:55.242Z,26.50
2022-09-06T16:24:23.011Z,26.50
2022-09-06T16:26:50.811Z,26.50
2022-09-06T16:29:19.079Z,26.40
2022-09-06T16:31:47.136Z,26.40
2022-09-06T16:34:15.317Z,26.50
2022-09-06T16:36:42.647Z,26.40
2022-09-06T16:39:11.023Z,26.40
2022-09-06T16:41:42.868Z,26.40
2022-09-06T16:44:16.954Z,26.40
2022-09-06T16:46:46.753Z,26.30
2022-09-06T16:49:16.803Z,26.30
2022-09-06T16:51:44.493Z,26.30
2022-09-06T16:54:11.952Z,26.20
2022-09-06T16:56:40.056Z,26.30
2022-09-06T16:59:09.373Z,26.20
2022-09-06T17:01:41.363Z,26.20
2022-09-06T17:04:09.608Z,26.10
2022-09-06T17:06:44.384Z,26.10
2022-09-06T17:09:19.183Z,26.10
2022-09-06T17:11:49.934Z,26.10
2022-09-06T17:14:17.726Z,26.10
2022-09-06T17:17:04.073Z,26.00
2022-09-06T17:19:36.656Z,26.00
2022-09-06T17:22:04.879Z,25.90
2022-09-06T17:24:32.155Z,25.80
2022-09-06T17:26:59.476Z,25.80
2022-09-06T17:29:28.144Z,25.60
2022-09-06T17:31:56.037Z,25.60
2022-09-06T17:34:23.157Z,25.50
2022-09-06T17:36:50.617Z,25.50
2022-09-06T17:39:21.133Z,25.50
2022-09-06T17:41:50.481Z,25.40
2022-09-06T17:44:19.768Z,25.30
2022-09-06T17:47:09.098Z,25.30
2022-09-06T17:49:35.558Z,25.20
2022-09-06T17:52:02.912Z,25.20
2022-09-06T17:54:31.829Z,25.20
2022-09-06T17:56:59.212Z,25.20
2022-09-06T17:59:26.464Z,25.20
2022-09-06T18:01:53.703Z,25.20
2022-09-06T18:04:20.999Z,25.10
2022-09-06T18:06:48.170Z,25.10
2022-09-06T18:09:17.625Z,25.00
2022-09-06T18:11:46.826Z,25.00
2022-09-06T18:14:17.534Z,25.00
2022-09-06T18:16:49.410Z,25.00
2022-09-06T18:19:18.089Z,24.90
2022-09-06T18:21:46.045Z,24.90
2022-09-06T18:24:16.051Z,24.90
2022-09-06T18:26:43.615Z,24.80
2022-09-06T18:29:14.698Z,24.80
2022-09-06T18:31:42.852Z,24.70
2022-09-06T18:34:10.830Z,24.70
2022-09-06T18:36:39.312Z,24.70
2022-09-06T18:39:06.884Z,24.70
2022-09-06T18:41:52.914Z,24.70
2022-09-06T18:44:20.624Z,24.70
2022-09-06T18:46:48.312Z,24.70
2022-09-06T18:49:16.379Z,24.60
2022-09-06T18:51:44.681Z,24.60
2022-09-06T18:54:11.994Z,24.50
2022-09-06T18:56:39.238Z,24.60
2022-09-06T18:59:07.187Z,24.50
2022-09-06T19:01:35.201Z,24.50
2022-09-06T19:04:22.255Z,24.40
2022-09-06T19:06:49.571Z,24.40
2022-09-06T19:09:17.610Z,24.40
2022-09-06T19:11:47.357Z,24.50
2022-09-06T19:14:15.203Z,24.50
2022-09-06T19:16:42.501Z,24.40
2022-09-06T19:19:11.698Z,24.30
2022-09-06T19:21:42.081Z,24.30
2022-09-06T19:24:11.300Z,24.30
2022-09-06T19:26:41.701Z,24.30
2022-09-06T19:29:13.536Z,24.30
2022-09-06T19:31:41.288Z,24.30
2022-09-06T19:34:08.659Z,24.30
2022-09-06T19:36:36.377Z,24.20
2022-09-06T19:39:08.241Z,24.10
2022-09-06T19:41:43.074Z,24.00
2022-09-06T19:44:11.398Z,23.80
2022-09-06T19:46:44.921Z,23.40
2022-09-06T19:49:19.117Z,23.10
2022-09-06T19:51:48.762Z,22.80
2022-09-06T19:54:16.450Z,22.60
2022-09-06T19:56:44.373Z,22.60
2022-09-06T19:59:13.323Z,22.60
2022-09-06T20:01:42.496Z,22.60
2022-09-06T20:04:11.545Z,22.60
2022-09-06T20:06:39.283Z,22.50
2022-09-06T20:09:09.021Z,22.50
2022-09-06T20:11:37.973Z,22.50
2022-09-06T20:14:05.600Z,22.40
2022-09-06T20:16:33.192Z,22.40
2022-09-06T20:19:00.619Z,22.40
2022-09-06T20:21:28.959Z,22.40
2022-09-06T20:23:59.100Z,22.30
2022-09-06T20:26:28.864Z,22.20
2022-09-06T20:29:02.529Z,22.30
2022-09-06T20:31:31.125Z,22.30
2022-09-06T20:34:02.674Z,22.20
2022-09-06T20:36:30.251Z,22.10
2022-09-06T20:38:57.589Z,22.10
2022-09-06T20:41:26.437Z,22.00
2022-09-06T20:43:55.847Z,21.80
2022-09-06T20:46:31.705Z,21.60
2022-09-06T20:49:02.007Z,21.40
2022-09-06T20:51:29.647Z,21.30
2022-09-06T20:53:58.800Z,21.30
2022-09-06T20:56:28.651Z,21.20
2022-09-06T20:59:01.104Z,21.10
2022-09-06T21:01:35.133Z,21.00
2022-09-06T21:04:04.741Z,21.10
2022-09-06T21:06:34.503Z,21.10
2022-09-06T21:09:02.983Z,21.00
2022-09-06T21:11:30.137Z,20.90
2022-09-06T21:13:57.880Z,20.90
2022-09-06T21:16:28.222Z,20.90
2022-09-06T21:18:57.753Z,21.00
2022-09-06T21:21:26.130Z,20.90
2022-09-06T21:23:53.952Z,20.90
2022-09-06T21:26:22.379Z,20.90
2022-09-06T21:28:49.881Z,21.00
2022-09-06T21:31:21.884Z,20.90
2022-09-06T21:33:57.587Z,20.90
2022-09-06T21:36:30.398Z,20.90
2022-09-06T21:39:00.499Z,20.90
2022-09-06T21:41:28.705Z,20.90
2022-09-06T21:44:01.162Z,20.90
2022-09-06T21:46:34.078Z,20.90
2022-09-06T21:49:04.415Z,20.90
2022-09-06T21:51:32.603Z,20.90
2022-09-06T21:54:03.473Z,20.90
2022-09-06T21:56:32.359Z,20.90
2022-09-06T21:58:59.767Z,20.90
2022-09-06T22:01:29.626Z,20.90
2022-09-06T22:03:57.325Z,21.00
2022-09-06T22:06:28.668Z,20.90
2022-09-06T22:08:57.727Z,20.80
2022-09-06T22:11:30.393Z,20.80
2022-09-06T22:14:02.411Z,20.80
2022-09-06T22:16:33.087Z,20.80
2022-09-06T22:19:00.734Z,20.70
2022-09-06T22:21:27.949Z,20.70
2022-09-06T22:24:00.443Z,20.60
2022-09-06T22:26:29.617Z,20.70
2022-09-06T22:29:02.364Z,20.70
